createdAt,value
2023-05-25T00:01:01.833Z,8.48
2023-05-25T00:02:05.514Z,8.47
2023-05-25T00:03:10.293Z,8.46
2023-05-25T00:04:17.565Z,8.43
2023-05-25T00:05:21.250Z,8.42
2023-05-25T00:06:23.552Z,8.42
2023-05-25T00:07:25.866Z,8.39
2023-05-25T00:08:29.107Z,8.37
2023-05-25T00:09:31.487Z,8.36
2023-05-25T00:10:33.859Z,8.36
2023-05-25T00:11:36.488Z,8.34
2023-05-25T00:12:38.858Z,8.34
2023-05-25T00:13:41.251Z,8.31
2023-05-25T00:14:43.575Z,8.31
2023-05-25T00:15:46.105Z,8.30
2023-05-25T00:16:49.129Z,8.29
2023-05-25T00:17:54.800Z,8.28
2023-05-25T00:18:57.897Z,8.27
2023-05-25T00:20:10.865Z,8.26
2023-05-25T00:21:14.277Z,8.25
2023-05-25T00:22:16.940Z,8.24
2023-05-25T00:23:19.251Z,8.24
2023-05-25T00:24:21.546Z,8.22
2023-05-25T00:25:23.876Z,8.21
2023-05-25T00:26:26.306Z,8.21
2023-05-25T00:27:28.619Z,8.21
2023-05-25T00:28:31.077Z,8.19
2023-05-25T00:29:33.954Z,8.19
2023-05-25T00:30:36.697Z,8.17
2023-05-25T00:31:39.133Z,8.17
2023-05-25T00:32:41.565Z,8.15
2023-05-25T00:33:44.394Z,8.14
2023-05-25T00:34:47.537Z,8.12
2023-05-25T00:35:49.866Z,8.13
2023-05-25T00:36:52.199Z,8.12
2023-05-25T00:37:54.487Z,8.11
2023-05-25T00:38:56.884Z,8.10
2023-05-25T00:39:59.242Z,8.10
2023-05-25T00:41:02.838Z,8.08
2023-05-25T00:42:06.703Z,8.08
2023-05-25T00:43:09.652Z,8.07
2023-05-25T00:44:15.162Z,8.06
2023-05-25T00:45:17.719Z,8.05
2023-05-25T00:46:20.096Z,8.04
2023-05-25T00:47:22.898Z,8.05
2023-05-25T00:48:27.981Z,8.04
2023-05-25T00:49:33.944Z,8.04
2023-05-25T00:50:42.175Z,8.01
2023-05-25T00:51:48.333Z,8.02
2023-05-25T00:52:50.897Z,8.00
2023-05-25T00:53:53.530Z,8.00
2023-05-25T00:55:00.929Z,7.98
2023-05-25T00:56:11.100Z,7.98
2023-05-25T00:57:16.806Z,7.95
2023-05-25T00:58:22.143Z,7.94
2023-05-25T00:59:29.025Z,7.93
2023-05-25T01:00:33.495Z,7.92
2023-05-25T01:01:40.468Z,7.92
2023-05-25T01:02:44.171Z,7.89
2023-05-25T01:03:54.055Z,7.88
2023-05-25T01:05:00.346Z,7.86
2023-05-25T01:06:07.556Z,7.84
2023-05-25T01:07:11.672Z,7.84
2023-05-25T01:08:17.139Z,7.81
2023-05-25T01:09:22.598Z,7.81
2023-05-25T01:10:26.252Z,7.81
2023-05-25T01:11:33.567Z,7.78
2023-05-25T01:12:38.783Z,7.78
2023-05-25T01:13:44.325Z,7.76
2023-05-25T01:14:48.818Z,7.73
2023-05-25T01:15:51.864Z,7.72
2023-05-25T01:16:57.550Z,7.72
2023-05-25T01:18:00.274Z,7.69
2023-05-25T01:19:04.687Z,7.68
2023-05-25T01:20:11.744Z,7.67
2023-05-25T01:21:23.262Z,7.66
2023-05-25T01:22:34.426Z,7.64
2023-05-25T01:23:38.984Z,7.61
2023-05-25T01:25:03.964Z,7.60
2023-05-25T01:26:11.609Z,7.59
2023-05-25T01:27:20.002Z,7.58
2023-05-25T01:28:27.002Z,7.56
2023-05-25T01:29:31.382Z,7.54
2023-05-25T01:30:36.776Z,7.52
2023-05-25T01:31:40.314Z,7.52
2023-05-25T01:32:44.173Z,7.50
2023-05-25T01:33:47.393Z,7.49
2023-05-25T01:34:50.567Z,7.48
2023-05-25T01:35:52.870Z,7.47
2023-05-25T01:36:55.282Z,7.46
2023-05-25T01:37:59.043Z,7.44
2023-05-25T01:39:01.436Z,7.44
2023-05-25T01:40:08.671Z,7.43
2023-05-25T01:41:11.146Z,7.41
2023-05-25T01:42:13.474Z,7.39
2023-05-25T01:43:16.839Z,7.39
2023-05-25T01:44:19.776Z,7.37
2023-05-25T01:45:22.403Z,7.37
2023-05-25T01:46:37.118Z,7.36
2023-05-25T01:47:54.330Z,7.36
2023-05-25T01:49:26.676Z,7.33
2023-05-25T01:50:51.306Z,7.31
2023-05-25T01:52:17.829Z,7.30
2023-05-25T01:53:24.089Z,7.29
2023-05-25T01:54:47.323Z,7.28
2023-05-25T01:56:02.372Z,7.26
2023-05-25T01:57:10.446Z,7.24
2023-05-25T01:58:15.318Z,7.23
2023-05-25T01:59:20.933Z,7.22
2023-05-25T02:00:25.974Z,7.21
2023-05-25T02:01:28.554Z,7.20
2023-05-25T02:02:33.285Z,7.21
2023-05-25T02:03:37.669Z,7.19
2023-05-25T02:04:42.588Z,7.16
2023-05-25T02:05:46.522Z,7.15
2023-05-25T02:06:49.486Z,7.15
2023-05-25T02:07:52.629Z,7.13
2023-05-25T02:08:54.952Z,7.12
2023-05-25T02:09:57.565Z,7.12
2023-05-25T02:11:00.074Z,7.12
2023-05-25T02:12:03.440Z,7.10
2023-05-25T02:13:05.999Z,7.09
2023-05-25T02:14:09.319Z,7.08
2023-05-25T02:15:12.217Z,7.07
2023-05-25T02:16:14.599Z,7.07
2023-05-25T02:17:20.673Z,7.06
2023-05-25T02:18:23.860Z,7.06
2023-05-25T02:19:30.302Z,7.05
2023-05-25T02:20:33.011Z,7.04
2023-05-25T02:21:38.467Z,7.04
2023-05-25T02:22:40.847Z,7.03
2023-05-25T02:23:43.550Z,7.02
2023-05-25T02:24:46.828Z,7.02
2023-05-25T02:25:49.208Z,7.01
2023-05-25T02:26:52.228Z,7.01
2023-05-25T02:27:56.027Z,6.99
2023-05-25T02:28:58.342Z,6.98
2023-05-25T02:30:00.687Z,6.98
2023-05-25T02:31:04.498Z,6.98
2023-05-25T02:32:07.081Z,6.96
2023-05-25T02:33:09.520Z,6.96
2023-05-25T02:34:12.052Z,6.94
2023-05-25T02:35:15.762Z,6.94
2023-05-25T02:36:18.337Z,6.93
2023-05-25T02:37:21.399Z,6.93
2023-05-25T02:38:25.315Z,6.92
2023-05-25T02:39:28.854Z,6.93
2023-05-25T02:40:33.288Z,6.91
2023-05-25T02:41:35.658Z,6.92
2023-05-25T02:42:38.334Z,6.91
2023-05-25T02:43:40.790Z,6.90
2023-05-25T02:44:48.481Z,6.90
2023-05-25T02:45:50.876Z,6.89
2023-05-25T02:46:53.322Z,6.90
2023-05-25T02:47:55.878Z,6.89
2023-05-25T02:49:00.185Z,6.89
2023-05-25T02:50:03.295Z,6.87
2023-05-25T02:51:07.951Z,6.88
2023-05-25T02:52:10.314Z,6.89
2023-05-25T02:53:12.712Z,6.88
2023-05-25T02:54:15.009Z,6.89
2023-05-25T02:55:18.978Z,6.88
2023-05-25T02:56:23.073Z,6.88
2023-05-25T02:57:26.144Z,6.87
2023-05-25T02:58:28.610Z,6.88
2023-05-25T02:59:43.272Z,6.86
2023-05-25T03:00:47.042Z,6.87
2023-05-25T03:01:49.782Z,6.86
2023-05-25T03:02:52.211Z,6.85
2023-05-25T03:03:55.296Z,6.85
2023-05-25T03:05:04.170Z,6.85
2023-05-25T03:06:07.845Z,6.84
2023-05-25T03:07:10.190Z,6.83
2023-05-25T03:08:13.364Z,6.82
2023-05-25T03:09:16.039Z,6.81
2023-05-25T03:10:18.313Z,6.81
2023-05-25T03:11:21.312Z,6.80
2023-05-25T03:12:24.272Z,6.80
2023-05-25T03:13:27.010Z,6.79
2023-05-25T03:14:29.388Z,6.79
2023-05-25T03:15:38.298Z,6.79
2023-05-25T03:16:40.744Z,6.78
2023-05-25T03:17:43.208Z,6.78
2023-05-25T03:18:46.046Z,6.77
2023-05-25T03:19:48.442Z,6.77
2023-05-25T03:20:50.893Z,6.76
2023-05-25T03:21:53.737Z,6.76
2023-05-25T03:22:56.247Z,6.74
2023-05-25T03:23:59.668Z,6.74
2023-05-25T03:25:02.624Z,6.73
2023-05-25T03:26:05.042Z,6.72
2023-05-25T03:27:08.837Z,6.73
2023-05-25T03:28:11.626Z,6.72
2023-05-25T03:29:14.678Z,6.72
2023-05-25T03:30:17.121Z,6.72
2023-05-25T03:31:21.758Z,6.72
2023-05-25T03:32:24.462Z,6.72
2023-05-25T03:33:27.059Z,6.72
2023-05-25T03:34:30.289Z,6.72
2023-05-25T03:35:33.110Z,6.72
2023-05-25T03:36:35.450Z,6.73
2023-05-25T03:37:37.895Z,6.74
2023-05-25T03:38:40.591Z,6.74
2023-05-25T03:39:42.938Z,6.75
2023-05-25T03:40:45.300Z,6.77
2023-05-25T03:41:47.767Z,6.77
2023-05-25T03:42:50.602Z,6.79
2023-05-25T03:43:52.943Z,6.80
2023-05-25T03:44:55.943Z,6.84
2023-05-25T03:45:58.939Z,6.85
2023-05-25T03:47:01.313Z,6.86
2023-05-25T03:48:04.948Z,6.90
2023-05-25T03:49:07.354Z,6.92
2023-05-25T03:50:11.121Z,6.96
2023-05-25T03:51:13.415Z,6.97
2023-05-25T03:52:15.734Z,7.01
2023-05-25T03:53:18.155Z,7.04
2023-05-25T03:54:20.801Z,7.09
2023-05-25T03:55:23.911Z,7.11
2023-05-25T03:56:27.549Z,7.15
2023-05-25T03:57:29.961Z,7.19
2023-05-25T03:58:35.416Z,7.23
2023-05-25T03:59:37.756Z,7.27
2023-05-25T04:00:40.144Z,7.30
2023-05-25T04:01:42.524Z,7.34
2023-05-25T04:02:44.922Z,7.38
2023-05-25T04:03:47.572Z,7.43
2023-05-25T04:04:52.114Z,7.47
2023-05-25T04:05:54.436Z,7.51
2023-05-25T04:06:56.756Z,7.55
2023-05-25T04:07:59.465Z,7.59
2023-05-25T04:09:01.820Z,7.63
2023-05-25T04:10:05.003Z,7.70
2023-05-25T04:11:07.756Z,7.74
2023-05-25T04:12:10.128Z,7.78
2023-05-25T04:13:13.018Z,7.81
2023-05-25T04:14:15.482Z,7.86
2023-05-25T04:15:18.766Z,7.91
2023-05-25T04:16:30.268Z,7.98
2023-05-25T04:17:39.080Z,8.02
2023-05-25T04:18:41.902Z,8.09
2023-05-25T04:19:44.327Z,8.14
2023-05-25T04:20:47.187Z,8.20
2023-05-25T04:21:51.018Z,8.25
2023-05-25T04:22:53.742Z,8.33
2023-05-25T04:23:56.241Z,8.39
2023-05-25T04:24:58.877Z,8.46
2023-05-25T04:26:01.943Z,8.53
2023-05-25T04:27:05.669Z,8.60
2023-05-25T04:28:08.715Z,8.66
2023-05-25T04:29:32.319Z,8.77
2023-05-25T04:30:57.462Z,8.86
2023-05-25T04:32:30.162Z,8.98
2023-05-25T04:34:02.880Z,9.11
2023-05-25T04:35:08.118Z,9.21
2023-05-25T04:36:16.899Z,9.32
2023-05-25T04:37:19.364Z,9.41
2023-05-25T04:38:21.920Z,9.50
2023-05-25T04:39:24.330Z,9.59
2023-05-25T04:40:30.321Z,9.68
2023-05-25T04:41:34.130Z,9.80
2023-05-25T04:42:43.045Z,9.88
2023-05-25T04:44:04.023Z,9.98
2023-05-25T04:45:13.107Z,10.10
2023-05-25T04:46:17.254Z,10.22
2023-05-25T04:47:20.136Z,10.31
2023-05-25T04:48:24.750Z,10.39
2023-05-25T04:49:27.495Z,10.49
2023-05-25T04:50:30.030Z,10.58
2023-05-25T04:51:32.716Z,10.67
2023-05-25T04:52:35.212Z,10.75
2023-05-25T04:53:37.791Z,10.84
2023-05-25T04:54:42.113Z,10.93
2023-05-25T04:55:44.832Z,11.02
2023-05-25T04:56:47.899Z,11.12
2023-05-25T04:57:50.191Z,11.20
2023-05-25T04:58:53.888Z,11.29
2023-05-25T04:59:56.503Z,11.36
2023-05-25T05:00:59.147Z,11.44
2023-05-25T05:02:01.533Z,11.52
2023-05-25T05:03:04.053Z,11.59
2023-05-25T05:04:08.347Z,11.71
2023-05-25T05:05:10.949Z,11.79
2023-05-25T05:06:13.570Z,11.87
2023-05-25T05:07:15.965Z,11.98
2023-05-25T05:08:18.665Z,12.09
2023-05-25T05:09:21.246Z,12.18
2023-05-25T05:10:24.279Z,12.27
2023-05-25T05:11:31.134Z,12.37
2023-05-25T05:12:33.810Z,12.45
2023-05-25T05:13:37.635Z,12.56
2023-05-25T05:14:40.035Z,12.65
2023-05-25T05:15:43.117Z,12.75
2023-05-25T05:16:45.667Z,12.84
2023-05-25T05:17:48.097Z,12.95
2023-05-25T05:18:50.585Z,13.05
2023-05-25T05:19:52.911Z,13.14
2023-05-25T05:20:55.392Z,13.22
2023-05-25T05:22:00.139Z,13.29
2023-05-25T05:23:03.882Z,13.37
2023-05-25T05:24:06.550Z,13.47
2023-05-25T05:25:09.591Z,13.56
2023-05-25T05:26:15.429Z,13.66
2023-05-25T05:27:19.740Z,13.74
2023-05-25T05:28:30.057Z,13.83
2023-05-25T05:29:34.491Z,13.93
2023-05-25T05:30:36.870Z,14.02
2023-05-25T05:31:39.408Z,14.10
2023-05-25T05:32:41.868Z,14.21
2023-05-25T05:33:46.003Z,14.30
2023-05-25T05:34:48.529Z,14.40
2023-05-25T05:36:07.475Z,14.52
2023-05-25T05:37:11.435Z,14.63
2023-05-25T05:38:16.627Z,14.73
2023-05-25T05:39:20.898Z,14.83
2023-05-25T05:40:23.193Z,14.94
2023-05-25T05:41:25.734Z,15.05
2023-05-25T05:42:28.187Z,15.16
2023-05-25T05:43:30.707Z,15.24
2023-05-25T05:44:32.985Z,15.34
2023-05-25T05:45:35.294Z,15.44
2023-05-25T05:46:38.588Z,15.55
2023-05-25T05:47:41.034Z,15.67
2023-05-25T05:48:43.706Z,15.78
2023-05-25T05:49:46.141Z,15.87
2023-05-25T05:50:48.508Z,15.96
2023-05-25T05:51:50.922Z,16.09
2023-05-25T05:52:53.886Z,16.18
2023-05-25T05:53:56.484Z,16.30
2023-05-25T05:54:59.251Z,16.43
2023-05-25T05:56:02.972Z,16.53
2023-05-25T05:57:06.751Z,16.65
2023-05-25T05:58:09.483Z,16.76
2023-05-25T05:59:12.087Z,16.88
2023-05-25T06:00:16.301Z,16.98
2023-05-25T06:01:18.647Z,17.09
2023-05-25T06:02:21.231Z,17.19
2023-05-25T06:03:23.988Z,17.32
2023-05-25T06:04:29.599Z,17.41
2023-05-25T06:05:33.542Z,17.53
2023-05-25T06:06:37.879Z,17.65
2023-05-25T06:07:45.831Z,17.77
2023-05-25T06:08:48.597Z,17.88
2023-05-25T06:09:50.979Z,17.99
2023-05-25T06:10:53.296Z,18.11
2023-05-25T06:11:55.587Z,18.22
2023-05-25T06:12:57.847Z,18.34
2023-05-25T06:14:00.384Z,18.44
2023-05-25T06:15:02.994Z,18.59
2023-05-25T06:16:05.680Z,18.69
2023-05-25T06:18:10.343Z,18.92
2023-05-25T06:19:14.685Z,19.02
2023-05-25T06:20:17.910Z,19.14
2023-05-25T06:21:21.944Z,19.24
2023-05-25T06:22:28.120Z,19.38
2023-05-25T06:23:31.753Z,19.52
2023-05-25T06:24:34.068Z,19.60
2023-05-25T06:25:36.591Z,19.72
2023-05-25T06:26:38.901Z,19.82
2023-05-25T06:27:41.250Z,19.96
2023-05-25T06:28:43.823Z,20.06
2023-05-25T06:29:46.270Z,20.17
2023-05-25T06:30:48.702Z,20.29
2023-05-25T06:31:51.381Z,20.39
2023-05-25T06:32:54.230Z,20.50
2023-05-25T06:33:56.983Z,20.62
2023-05-25T06:34:59.435Z,20.72
2023-05-25T06:36:04.966Z,20.82
2023-05-25T06:37:08.448Z,20.92
2023-05-25T06:38:12.433Z,21.02
2023-05-25T06:39:14.997Z,21.12
2023-05-25T06:40:18.269Z,21.24
2023-05-25T06:41:21.405Z,21.35
2023-05-25T06:42:23.833Z,21.45
2023-05-25T06:43:39.707Z,21.55
2023-05-25T06:44:48.718Z,21.66
2023-05-25T06:45:51.220Z,21.76
2023-05-25T06:46:54.948Z,21.87
2023-05-25T06:47:57.782Z,21.96
2023-05-25T06:49:01.802Z,22.06
2023-05-25T06:50:04.600Z,22.17
2023-05-25T06:51:06.920Z,22.27
2023-05-25T06:52:09.269Z,22.37
2023-05-25T06:53:11.822Z,22.48
2023-05-25T06:54:15.611Z,22.58
2023-05-25T06:55:17.887Z,22.68
2023-05-25T06:56:20.363Z,22.79
2023-05-25T06:57:23.958Z,22.88
2023-05-25T06:58:27.559Z,22.98
2023-05-25T06:59:29.917Z,23.08
2023-05-25T07:00:32.203Z,23.15
2023-05-25T07:01:34.585Z,23.22
2023-05-25T07:02:37.007Z,23.30
2023-05-25T07:03:39.398Z,23.36
2023-05-25T07:04:42.258Z,23.44
2023-05-25T07:05:44.931Z,23.51
2023-05-25T07:06:48.572Z,23.58
2023-05-25T07:07:51.069Z,23.65
2023-05-25T07:08:53.570Z,23.73
2023-05-25T07:09:55.847Z,23.80
2023-05-25T07:10:58.340Z,23.89
2023-05-25T07:12:02.464Z,23.96
2023-05-25T07:13:04.935Z,24.03
2023-05-25T07:14:07.291Z,24.10
2023-05-25T07:15:10.633Z,24.16
2023-05-25T07:16:13.210Z,24.22
2023-05-25T07:17:16.028Z,24.24
2023-05-25T07:18:19.134Z,24.30
2023-05-25T07:19:21.498Z,24.34
2023-05-25T07:20:24.423Z,24.39
2023-05-25T07:21:26.960Z,24.45
2023-05-25T07:22:29.289Z,24.47
2023-05-25T07:23:32.649Z,24.52
2023-05-25T07:24:35.014Z,24.58
2023-05-25T07:25:40.941Z,24.63
2023-05-25T07:26:44.637Z,24.66
2023-05-25T07:27:50.578Z,24.70
2023-05-25T07:28:52.983Z,24.74
2023-05-25T07:29:55.335Z,24.78
2023-05-25T07:30:57.808Z,24.83
2023-05-25T07:32:00.564Z,24.87
2023-05-25T07:33:02.967Z,24.89
2023-05-25T07:34:05.677Z,24.91
2023-05-25T07:35:08.200Z,24.94
2023-05-25T07:36:10.843Z,24.97
2023-05-25T07:37:13.191Z,25.02
2023-05-25T07:38:15.683Z,25.07
2023-05-25T07:39:18.025Z,25.11
2023-05-25T07:40:20.425Z,25.17
2023-05-25T07:41:23.199Z,25.22
2023-05-25T07:42:25.595Z,25.25
2023-05-25T07:43:28.060Z,25.29
2023-05-25T07:44:30.516Z,25.33
2023-05-25T07:45:33.137Z,25.37
2023-05-25T07:46:35.502Z,25.43
2023-05-25T07:47:38.018Z,25.47
2023-05-25T07:48:40.460Z,25.56
2023-05-25T07:49:42.933Z,25.60
2023-05-25T07:50:45.355Z,25.66
2023-05-25T07:51:47.658Z,25.70
2023-05-25T07:52:49.943Z,25.76
2023-05-25T07:53:53.800Z,25.82
2023-05-25T07:54:56.356Z,25.85
2023-05-25T07:55:58.662Z,25.90
2023-05-25T07:57:01.792Z,25.94
2023-05-25T07:58:04.370Z,26.00
2023-05-25T07:59:07.629Z,26.04
2023-05-25T08:00:11.281Z,26.08
2023-05-25T08:01:16.532Z,26.11
2023-05-25T08:02:18.905Z,26.18
2023-05-25T08:03:31.941Z,26.23
2023-05-25T08:04:38.608Z,26.29
2023-05-25T08:05:41.267Z,26.34
2023-05-25T08:06:44.667Z,26.38
2023-05-25T08:07:46.969Z,26.43
2023-05-25T08:08:50.174Z,26.46
2023-05-25T08:09:52.594Z,26.52
2023-05-25T08:10:54.939Z,26.56
2023-05-25T08:12:12.895Z,26.60
2023-05-25T08:13:20.010Z,26.65
2023-05-25T08:14:24.035Z,26.70
2023-05-25T08:15:26.777Z,26.76
2023-05-25T08:16:29.109Z,26.79
2023-05-25T08:17:31.628Z,26.82
2023-05-25T08:18:33.905Z,26.86
2023-05-25T08:19:36.265Z,26.88
2023-05-25T08:20:38.689Z,26.91
2023-05-25T08:21:41.066Z,26.95
2023-05-25T08:22:44.921Z,26.97
2023-05-25T08:23:47.255Z,27.00
2023-05-25T08:24:50.129Z,27.04
2023-05-25T08:25:53.709Z,27.07
2023-05-25T08:26:56.077Z,27.12
2023-05-25T08:27:58.368Z,27.13
2023-05-25T08:29:01.909Z,27.18
2023-05-25T08:30:06.299Z,27.22
2023-05-25T08:31:08.706Z,27.24
2023-05-25T08:32:11.328Z,27.26
2023-05-25T08:33:13.689Z,27.26
2023-05-25T08:34:17.003Z,27.25
2023-05-25T08:35:19.880Z,27.25
2023-05-25T08:36:22.150Z,27.25
2023-05-25T08:37:25.147Z,27.23
2023-05-25T08:38:27.501Z,27.21
2023-05-25T08:39:29.842Z,27.22
2023-05-25T08:40:32.755Z,27.19
2023-05-25T08:41:36.942Z,27.12
2023-05-25T08:42:41.442Z,27.11
2023-05-25T08:43:43.859Z,27.07
2023-05-25T08:44:46.214Z,27.05
2023-05-25T08:45:48.853Z,27.03
2023-05-25T08:46:52.449Z,27.03
2023-05-25T08:47:59.535Z,27.00
2023-05-25T08:49:10.472Z,26.99
2023-05-25T08:50:17.360Z,26.97
2023-05-25T08:51:20.161Z,26.96
2023-05-25T08:52:24.401Z,26.94
2023-05-25T08:53:27.646Z,26.94
2023-05-25T08:54:37.433Z,26.94
2023-05-25T08:55:43.226Z,26.95
2023-05-25T08:57:06.366Z,26.98
2023-05-25T08:58:17.760Z,26.96
2023-05-25T08:59:44.936Z,26.94
2023-05-25T09:00:57.956Z,26.89
2023-05-25T09:02:19.040Z,26.83
2023-05-25T09:03:24.061Z,26.80
2023-05-25T09:04:27.062Z,26.78
2023-05-25T09:05:29.853Z,26.77
2023-05-25T09:06:34.225Z,26.77
2023-05-25T09:07:36.764Z,26.78
2023-05-25T09:08:39.877Z,26.75
2023-05-25T09:09:42.819Z,26.73
2023-05-25T09:10:45.097Z,26.72
2023-05-25T09:11:47.815Z,26.72
2023-05-25T09:12:52.044Z,26.70
2023-05-25T09:13:54.899Z,26.66
2023-05-25T09:14:58.856Z,26.65
2023-05-25T09:16:02.456Z,26.61
2023-05-25T09:17:05.119Z,26.60
2023-05-25T09:18:07.544Z,26.57
2023-05-25T09:19:10.189Z,26.57
2023-05-25T09:20:14.290Z,26.52
2023-05-25T09:21:16.705Z,26.52
2023-05-25T09:22:19.177Z,26.51
2023-05-25T09:23:21.786Z,26.48
2023-05-25T09:24:24.363Z,26.47
2023-05-25T09:25:28.742Z,26.47
2023-05-25T09:26:31.409Z,26.49
2023-05-25T09:27:35.787Z,26.48
2023-05-25T09:28:47.098Z,26.50
2023-05-25T09:29:53.453Z,26.52
2023-05-25T09:30:56.544Z,26.52
2023-05-25T09:32:00.396Z,26.53
2023-05-25T09:33:17.972Z,26.55
2023-05-25T09:34:20.768Z,26.55
2023-05-25T09:35:23.850Z,26.54
2023-05-25T09:36:26.765Z,26.54
2023-05-25T09:37:29.597Z,26.56
2023-05-25T09:38:32.981Z,26.55
2023-05-25T09:39:36.020Z,26.58
2023-05-25T09:40:38.688Z,26.59
2023-05-25T09:41:41.715Z,26.61
2023-05-25T09:42:44.420Z,26.62
2023-05-25T09:43:58.106Z,26.65
2023-05-25T09:45:09.224Z,26.67
2023-05-25T09:46:11.819Z,26.70
2023-05-25T09:47:15.565Z,26.70
2023-05-25T09:48:18.378Z,26.71
2023-05-25T09:49:21.499Z,26.67
2023-05-25T09:50:27.224Z,26.66
2023-05-25T09:51:33.369Z,26.67
2023-05-25T09:52:36.618Z,26.67
2023-05-25T09:53:39.016Z,26.68
2023-05-25T09:54:44.919Z,26.70
2023-05-25T09:55:53.785Z,26.71
2023-05-25T09:56:56.977Z,26.71
2023-05-25T09:57:59.368Z,26.72
2023-05-25T09:59:01.690Z,26.73
2023-05-25T10:00:05.836Z,26.72
2023-05-25T10:01:15.279Z,26.71
2023-05-25T10:02:17.629Z,26.69
2023-05-25T10:03:22.199Z,26.68
2023-05-25T10:04:25.004Z,26.67
2023-05-25T10:05:27.493Z,26.67
2023-05-25T10:06:32.029Z,26.65
2023-05-25T10:07:35.292Z,26.60
2023-05-25T10:08:38.077Z,26.58
2023-05-25T10:09:42.033Z,26.52
2023-05-25T10:10:45.396Z,26.46
2023-05-25T10:11:51.058Z,26.42
2023-05-25T10:12:55.633Z,26.41
2023-05-25T10:14:04.109Z,26.38
2023-05-25T10:15:07.850Z,26.33
2023-05-25T10:16:17.657Z,26.29
2023-05-25T10:17:23.807Z,26.26
2023-05-25T10:18:29.004Z,26.21
2023-05-25T10:19:37.562Z,26.18
2023-05-25T10:20:40.414Z,26.16
2023-05-25T10:21:48.151Z,26.13
2023-05-25T10:23:10.835Z,26.11
2023-05-25T10:24:24.961Z,26.09
2023-05-25T10:25:31.825Z,26.04
2023-05-25T10:26:39.742Z,26.02
2023-05-25T10:27:48.157Z,25.97
2023-05-25T10:28:51.704Z,25.93
2023-05-25T10:29:56.502Z,25.90
2023-05-25T10:31:00.213Z,25.88
2023-05-25T10:32:04.993Z,25.84
2023-05-25T10:33:08.788Z,25.79
2023-05-25T10:34:11.559Z,25.75
2023-05-25T10:35:14.714Z,25.73
2023-05-25T10:36:18.361Z,25.68
2023-05-25T10:37:21.528Z,25.66
2023-05-25T10:38:31.558Z,25.64
2023-05-25T10:39:34.383Z,25.61
2023-05-25T10:40:38.519Z,25.59
2023-05-25T10:41:42.039Z,25.58
2023-05-25T10:42:46.616Z,25.58
2023-05-25T10:43:50.043Z,25.56
2023-05-25T10:44:52.744Z,25.54
2023-05-25T10:45:56.903Z,25.53
2023-05-25T10:47:00.419Z,25.54
2023-05-25T10:48:03.070Z,25.49
2023-05-25T10:49:06.056Z,25.49
2023-05-25T10:50:27.217Z,25.45
2023-05-25T10:51:40.141Z,25.41
2023-05-25T10:52:42.537Z,25.41
2023-05-25T10:53:48.547Z,25.38
2023-05-25T10:54:56.646Z,25.37
2023-05-25T10:56:03.343Z,25.34
2023-05-25T10:57:11.475Z,25.34
2023-05-25T10:58:16.655Z,25.33
2023-05-25T10:59:27.818Z,25.34
2023-05-25T11:00:31.498Z,25.33
2023-05-25T11:01:50.480Z,25.32
2023-05-25T11:02:55.616Z,25.29
2023-05-25T11:04:16.300Z,25.27
2023-05-25T11:05:27.950Z,25.21
2023-05-25T11:06:44.377Z,25.17
2023-05-25T11:07:56.902Z,25.08
2023-05-25T11:09:00.603Z,25.01
2023-05-25T11:10:03.811Z,24.97
2023-05-25T11:11:06.522Z,24.92
2023-05-25T11:12:09.138Z,24.88
2023-05-25T11:13:37.017Z,24.80
2023-05-25T11:14:42.856Z,24.75
2023-05-25T11:15:45.423Z,24.71
2023-05-25T11:17:15.266Z,24.66
2023-05-25T11:18:18.198Z,24.61
2023-05-25T11:19:21.619Z,24.57
2023-05-25T11:20:27.880Z,24.54
2023-05-25T11:21:32.890Z,24.51
2023-05-25T11:22:37.818Z,24.48
2023-05-25T11:23:59.588Z,24.43
2023-05-25T11:25:03.741Z,24.38
2023-05-25T11:26:07.996Z,24.35
2023-05-25T11:27:10.364Z,24.34
2023-05-25T11:28:13.173Z,24.32
2023-05-25T11:29:16.376Z,24.32
2023-05-25T11:30:18.749Z,24.30
2023-05-25T11:31:27.571Z,24.27
2023-05-25T11:32:30.012Z,24.26
2023-05-25T11:33:32.453Z,24.24
2023-05-25T11:34:35.150Z,24.24
2023-05-25T11:35:37.554Z,24.21
2023-05-25T11:36:40.030Z,24.19
2023-05-25T11:37:50.181Z,24.22
2023-05-25T11:39:02.517Z,24.20
2023-05-25T11:40:09.770Z,24.16
2023-05-25T11:41:24.588Z,24.13
2023-05-25T11:42:27.942Z,24.16
2023-05-25T11:43:34.331Z,24.13
2023-05-25T11:44:39.039Z,24.11
2023-05-25T11:45:41.671Z,24.12
2023-05-25T11:46:44.079Z,24.11
2023-05-25T11:47:46.549Z,24.11
2023-05-25T11:48:53.683Z,24.10
2023-05-25T11:49:56.652Z,24.10
2023-05-25T11:51:07.873Z,24.07
2023-05-25T11:52:10.736Z,24.04
2023-05-25T11:53:13.913Z,24.04
2023-05-25T11:54:27.173Z,24.00
2023-05-25T11:55:29.552Z,23.99
2023-05-25T11:56:35.762Z,23.97
2023-05-25T11:57:40.464Z,23.95
2023-05-25T11:58:46.376Z,23.92
2023-05-25T11:59:51.156Z,23.90
2023-05-25T12:00:53.738Z,23.88
2023-05-25T12:01:57.609Z,23.86
2023-05-25T12:03:00.200Z,23.85
2023-05-25T12:04:11.908Z,23.85
2023-05-25T12:05:14.446Z,23.81
2023-05-25T12:06:28.168Z,23.81
2023-05-25T12:07:32.194Z,23.80
2023-05-25T12:08:36.194Z,23.79
2023-05-25T12:09:38.513Z,23.77
2023-05-25T12:10:51.587Z,23.77
2023-05-25T12:11:54.197Z,23.76
2023-05-25T12:12:58.582Z,23.76
2023-05-25T12:14:03.837Z,23.75
2023-05-25T12:15:06.951Z,23.75
2023-05-25T12:16:09.311Z,23.76
2023-05-25T12:17:11.919Z,23.71
2023-05-25T12:18:14.769Z,23.70
2023-05-25T12:19:18.489Z,23.68
2023-05-25T12:20:22.636Z,23.67
2023-05-25T12:21:25.327Z,23.67
2023-05-25T12:22:28.267Z,23.66
2023-05-25T12:23:30.623Z,23.65
2023-05-25T12:24:33.084Z,23.63
2023-05-25T12:25:49.795Z,23.62
2023-05-25T12:27:01.715Z,23.60
2023-05-25T12:28:15.222Z,23.58
2023-05-25T12:29:17.606Z,23.57
2023-05-25T12:30:28.406Z,23.53
2023-05-25T12:31:35.790Z,23.54
2023-05-25T12:33:02.854Z,23.52
2023-05-25T12:34:06.785Z,23.51
2023-05-25T12:35:09.548Z,23.52
2023-05-25T12:36:11.914Z,23.51
2023-05-25T12:37:23.588Z,23.50
2023-05-25T12:38:26.200Z,23.49
2023-05-25T12:39:33.267Z,23.48
2023-05-25T12:40:35.630Z,23.47
2023-05-25T12:41:55.000Z,23.47
2023-05-25T12:42:58.006Z,23.46
2023-05-25T12:44:00.800Z,23.45
2023-05-25T12:45:03.414Z,23.43
2023-05-25T12:46:05.885Z,23.42
2023-05-25T12:47:21.386Z,23.40
2023-05-25T12:48:28.086Z,23.37
2023-05-25T12:49:34.841Z,23.36
2023-05-25T12:50:37.506Z,23.34
2023-05-25T12:51:39.962Z,23.34
2023-05-25T12:52:44.516Z,23.32
2023-05-25T12:53:50.941Z,23.31
2023-05-25T12:54:53.278Z,23.29
2023-05-25T12:56:04.779Z,23.29
2023-05-25T12:57:09.232Z,23.27
2023-05-25T12:58:27.541Z,23.27
2023-05-25T12:59:31.620Z,23.26
2023-05-25T13:00:39.117Z,23.25
2023-05-25T13:01:41.461Z,23.24
2023-05-25T13:02:46.632Z,23.24
2023-05-25T13:03:50.208Z,23.24
2023-05-25T13:04:53.060Z,23.23
2023-05-25T13:06:03.305Z,23.21
2023-05-25T13:07:06.870Z,23.21
2023-05-25T13:08:09.248Z,23.19
2023-05-25T13:09:11.749Z,23.17
2023-05-25T13:10:16.160Z,23.17
2023-05-25T13:11:18.529Z,23.15
2023-05-25T13:12:20.958Z,23.14
2023-05-25T13:13:23.318Z,23.12
2023-05-25T13:14:26.694Z,23.12
2023-05-25T13:15:29.210Z,23.10
2023-05-25T13:16:33.587Z,23.09
2023-05-25T13:17:36.734Z,23.07
2023-05-25T13:18:39.767Z,23.07
2023-05-25T13:19:42.083Z,23.06
2023-05-25T13:20:47.225Z,23.05
2023-05-25T13:21:52.819Z,23.05
2023-05-25T13:22:58.268Z,23.03
2023-05-25T13:24:00.585Z,23.01
2023-05-25T13:25:03.326Z,23.01
2023-05-25T13:26:06.787Z,23.02
2023-05-25T13:27:09.118Z,22.99
2023-05-25T13:28:11.700Z,23.00
2023-05-25T13:29:14.109Z,23.00
2023-05-25T13:30:17.208Z,23.00
2023-05-25T13:31:19.669Z,23.00
2023-05-25T13:32:22.175Z,23.00
2023-05-25T13:33:24.547Z,22.97
2023-05-25T13:34:27.078Z,22.97
2023-05-25T13:35:45.969Z,22.97
2023-05-25T13:36:48.867Z,22.96
2023-05-25T13:37:51.580Z,22.96
2023-05-25T13:38:54.234Z,22.95
2023-05-25T13:39:56.589Z,22.94
2023-05-25T13:40:58.978Z,22.94
2023-05-25T13:42:01.311Z,22.92
2023-05-25T13:43:03.697Z,22.91
2023-05-25T13:44:06.024Z,22.90
2023-05-25T13:45:08.960Z,22.87
2023-05-25T13:46:25.862Z,22.85
2023-05-25T13:47:35.161Z,22.82
2023-05-25T13:48:37.946Z,22.83
2023-05-25T13:49:40.399Z,22.82
2023-05-25T13:50:45.294Z,22.80
2023-05-25T13:51:48.151Z,22.79
2023-05-25T13:52:50.651Z,22.77
2023-05-25T13:53:53.804Z,22.75
2023-05-25T13:54:56.286Z,22.75
2023-05-25T13:55:58.741Z,22.73
2023-05-25T13:57:01.037Z,22.71
2023-05-25T13:58:03.540Z,22.69
2023-05-25T13:59:06.103Z,22.67
2023-05-25T14:00:09.670Z,22.65
2023-05-25T14:01:12.029Z,22.63
2023-05-25T14:02:14.496Z,22.63
2023-05-25T14:03:17.762Z,22.62
2023-05-25T14:04:20.581Z,22.59